Time;durP1;ratioP1;P1;durP2;ratioP2;P2;SDS_P1;SDS_P2;PMS_P1;PMS_P2;Temp;Humidity;BMP_temperature;BMP_pressure;BME280_temperature;BME280_humidity;BME280_pressure;Samples;Min_cycle;Max_cycle;Signal;HPM_P1;HPM_P2
2024/02/28 00:01:58;;;;;;;;;;;17.50;66.10;;;;;;5040918;28;1353;-73
2024/02/28 00:04:24;;;;;;;;;;;17.50;66.10;;;;;;5039301;28;1391;-73
2024/02/28 00:06:50;;;;;;;;;;;17.50;66.10;;;;;;5036421;28;1159;-73
2024/02/28 00:09:15;;;;;;;;;;;17.50;66.10;;;;;;5037727;28;1906;-73
2024/02/28 00:11:47;;;;;;;;;;;17.50;66.10;;;;;;5040231;28;1339;-73
2024/02/28 00:14:13;;;;;;;;;;;17.50;66.10;;;;;;5039973;28;1492;-73
2024/02/28 00:16:42;;;;;;;;;;;17.50;66.10;;;;;;5038053;28;1524;-73
2024/02/28 00:19:08;;;;;;;;;;;17.50;66.10;;;;;;5040034;28;1670;-73
2024/02/28 00:21:33;;;;;;;;;;;17.50;66.10;;;;;;5040811;28;1518;-73
2024/02/28 00:23:58;;;;;;;;;;;17.50;66.10;;;;;;5039530;28;1392;-73
2024/02/28 00:26:24;;;;;;;;;;;17.50;66.10;;;;;;5040854;28;1606;-73
2024/02/28 00:28:50;;;;;;;;;;;17.50;66.20;;;;;;5074776;28;1895;-73
2024/02/28 00:31:15;;;;;;;;;;;17.50;66.10;;;;;;5041322;28;1853;-73
2024/02/28 00:33:41;;;;;;;;;;;17.50;66.20;;;;;;5040969;28;1329;-73
2024/02/28 00:36:06;;;;;;;;;;;17.50;66.20;;;;;;5034677;28;901;-73
2024/02/28 00:38:32;;;;;;;;;;;17.50;66.10;;;;;;5036165;28;1440;-73
2024/02/28 00:40:57;;;;;;;;;;;17.50;66.20;;;;;;5038888;28;1404;-73
2024/02/28 00:43:25;;;;;;;;;;;17.50;66.20;;;;;;5039285;28;877;-73
2024/02/28 00:45:51;;;;;;;;;;;17.50;66.20;;;;;;5039067;28;1337;-73
2024/02/28 00:48:16;;;;;;;;;;;17.50;66.20;;;;;;5043251;28;1961;-73
2024/02/28 00:50:42;;;;;;;;;;;17.50;66.20;;;;;;5047591;28;1435;-74
2024/02/28 00:53:07;;;;;;;;;;;17.50;66.20;;;;;;5035215;28;1414;-71
2024/02/28 00:55:33;;;;;;;;;;;17.50;66.20;;;;;;5038311;28;1391;-71
2024/02/28 00:57:58;;;;;;;;;;;17.50;66.40;;;;;;5039428;28;1305;-75
2024/02/28 01:00:23;;;;;;;;;;;17.50;66.30;;;;;;5023762;28;1382;-73
2024/02/28 01:02:49;;;;;;;;;;;17.50;66.30;;;;;;5038154;28;1545;-74
2024/02/28 01:05:14;;;;;;;;;;;17.50;66.30;;;;;;5040849;28;1354;-75
2024/02/28 01:07:40;;;;;;;;;;;17.50;66.30;;;;;;5039603;28;1428;-72
2024/02/28 01:10:06;;;;;;;;;;;17.50;66.30;;;;;;5039576;28;1956;-73
2024/02/28 01:12:31;;;;;;;;;;;17.50;66.30;;;;;;5036370;28;1280;-73
2024/02/28 01:14:57;;;;;;;;;;;17.50;66.30;;;;;;5039448;28;1531;-70
2024/02/28 01:17:22;;;;;;;;;;;17.50;66.30;;;;;;5040398;28;1348;-74
2024/02/28 01:19:48;;;;;;;;;;;17.50;66.30;;;;;;5038683;28;1123;-74
2024/02/28 01:22:14;;;;;;;;;;;17.50;66.30;;;;;;5022295;28;1307;-74
2024/02/28 01:24:39;;;;;;;;;;;17.50;66.30;;;;;;5041882;28;1180;-74
2024/02/28 01:27:05;;;;;;;;;;;17.50;66.30;;;;;;5037715;28;1495;-74
2024/02/28 01:29:30;;;;;;;;;;;17.50;66.30;;;;;;5039695;28;2001;-73
2024/02/28 01:31:56;;;;;;;;;;;17.50;66.30;;;;;;5042121;28;1355;-73
2024/02/28 01:34:21;;;;;;;;;;;17.50;66.30;;;;;;5041914;28;1127;-72
2024/02/28 01:36:47;;;;;;;;;;;17.50;67.10;;;;;;5041968;28;1407;-71
2024/02/28 01:39:12;;;;;;;;;;;17.50;66.30;;;;;;5041896;28;1804;-71
2024/02/28 01:41:37;;;;;;;;;;;17.50;66.30;;;;;;5045954;28;1401;-72
2024/02/28 01:44:03;;;;;;;;;;;17.50;66.30;;;;;;5044882;28;1479;-73
2024/02/28 01:46:29;;;;;;;;;;;17.50;66.30;;;;;;5039835;28;1540;-70
2024/02/28 01:48:54;;;;;;;;;;;17.50;66.30;;;;;;5034263;28;1975;-70
2024/02/28 01:51:21;;;;;;;;;;;17.50;66.30;;;;;;5023389;28;1511;-72
2024/02/28 01:53:46;;;;;;;;;;;17.50;66.30;;;;;;5040900;28;1608;-72
2024/02/28 01:56:12;;;;;;;;;;;17.50;66.40;;;;;;5039272;28;1403;-72
2024/02/28 01:58:38;;;;;;;;;;;17.50;66.40;;;;;;5035449;28;1568;-72
2024/02/28 02:01:05;;;;;;;;;;;17.50;66.40;;;;;;5037754;28;1331;-74
2024/02/28 02:03:31;;;;;;;;;;;17.50;66.40;;;;;;5066645;28;1381;-75
2024/02/28 02:05:56;;;;;;;;;;;17.50;66.40;;;;;;5036883;28;1501;-74
2024/02/28 02:08:22;;;;;;;;;;;17.40;66.30;;;;;;5042226;28;1906;-75
2024/02/28 02:10:48;;;;;;;;;;;17.50;66.40;;;;;;5043928;28;1624;-74
2024/02/28 02:13:13;;;;;;;;;;;17.50;67.20;;;;;;5045408;28;1049;-74
2024/02/28 02:15:39;;;;;;;;;;;17.50;66.40;;;;;;5045917;28;1407;-72
2024/02/28 02:18:04;;;;;;;;;;;17.40;66.30;;;;;;5042308;28;1510;-72
2024/02/28 02:20:30;;;;;;;;;;;17.50;67.20;;;;;;5051708;28;1351;-71
2024/02/28 02:22:55;;;;;;;;;;;17.40;66.40;;;;;;5049915;28;1492;-72
2024/02/28 02:25:21;;;;;;;;;;;17.40;66.30;;;;;;5027479;28;1611;-73
2024/02/28 02:27:46;;;;;;;;;;;17.40;66.30;;;;;;5045424;28;1303;-72
2024/02/28 02:30:12;;;;;;;;;;;17.40;66.40;;;;;;5043538;28;1907;-74
2024/02/28 02:32:37;;;;;;;;;;;17.40;66.40;;;;;;5057814;28;1463;-74
2024/02/28 02:35:03;;;;;;;;;;;17.40;66.40;;;;;;5046382;28;1229;-74
2024/02/28 02:37:28;;;;;;;;;;;17.40;66.40;;;;;;5043185;28;1441;-74
2024/02/28 02:39:54;;;;;;;;;;;17.40;66.40;;;;;;5044699;28;950;-74
2024/02/28 02:42:19;;;;;;;;;;;17.40;66.40;;;;;;5043051;28;1560;-73
2024/02/28 02:44:45;;;;;;;;;;;17.40;66.40;;;;;;5046359;28;1492;-72
2024/02/28 02:47:10;;;;;;;;;;;17.40;66.40;;;;;;5040517;28;1539;-72
2024/02/28 02:49:36;;;;;;;;;;;17.40;66.40;;;;;;5039775;28;1965;-71
2024/02/28 02:52:01;;;;;;;;;;;17.40;66.50;;;;;;5042047;28;1538;-72
2024/02/28 02:54:27;;;;;;;;;;;17.40;66.40;;;;;;5044143;28;1754;-71
2024/02/28 02:56:52;;;;;;;;;;;17.40;66.40;;;;;;5040062;28;1552;-71
2024/02/28 02:59:21;;;;;;;;;;;17.40;66.40;;;;;;5042739;28;1393;-71
2024/02/28 03:01:46;;;;;;;;;;;17.40;66.40;;;;;;5038288;28;1645;-71
2024/02/28 03:04:12;;;;;;;;;;;17.40;66.40;;;;;;5042908;28;1715;-72
2024/02/28 03:06:37;;;;;;;;;;;17.40;66.40;;;;;;5043440;28;872;-71
2024/02/28 03:09:03;;;;;;;;;;;17.40;66.40;;;;;;5040902;28;2020;-72
2024/02/28 03:11:28;;;;;;;;;;;17.40;66.40;;;;;;5042540;28;1538;-72
2024/02/28 03:13:54;;;;;;;;;;;17.40;66.40;;;;;;5042825;28;1458;-72
2024/02/28 03:16:20;;;;;;;;;;;17.40;66.40;;;;;;5039534;28;1448;-72
2024/02/28 03:18:45;;;;;;;;;;;17.40;66.50;;;;;;5048309;28;1347;-72
2024/02/28 03:21:11;;;;;;;;;;;17.40;66.50;;;;;;5042005;28;1686;-72
2024/02/28 03:23:36;;;;;;;;;;;17.40;66.50;;;;;;5038173;28;1659;-72
2024/02/28 03:26:03;;;;;;;;;;;17.40;66.50;;;;;;5042851;28;1093;-72
2024/02/28 03:28:28;;;;;;;;;;;17.40;66.50;;;;;;5042393;28;1910;-73
2024/02/28 03:30:54;;;;;;;;;;;17.40;66.50;;;;;;5040731;28;1292;-72
2024/02/28 03:33:19;;;;;;;;;;;17.40;66.50;;;;;;5039719;28;1462;-72
2024/02/28 03:35:45;;;;;;;;;;;17.40;66.50;;;;;;5039869;28;1663;-73
2024/02/28 03:38:10;;;;;;;;;;;17.40;66.50;;;;;;5039478;28;1323;-72
2024/02/28 03:40:36;;;;;;;;;;;17.40;66.50;;;;;;5041739;28;1552;-72
2024/02/28 03:43:01;;;;;;;;;;;17.40;66.50;;;;;;5039894;28;1413;-73
2024/02/28 03:45:27;;;;;;;;;;;17.40;66.50;;;;;;5037540;28;1372;-72
2024/02/28 03:47:53;;;;;;;;;;;17.40;66.50;;;;;;5077103;28;1554;-72
2024/02/28 03:50:18;;;;;;;;;;;17.40;66.50;;;;;;5038738;28;1969;-72
2024/02/28 03:52:43;;;;;;;;;;;17.40;66.50;;;;;;5041853;28;1560;-72
2024/02/28 03:55:09;;;;;;;;;;;17.40;66.50;;;;;;5036637;28;1550;-72
2024/02/28 03:57:35;;;;;;;;;;;17.40;66.50;;;;;;5047610;28;1357;-73
2024/02/28 04:00:04;;;;;;;;;;;17.40;66.50;;;;;;5039411;28;1533;-73
2024/02/28 04:02:30;;;;;;;;;;;17.40;66.50;;;;;;5040185;28;1260;-73
2024/02/28 04:04:55;;;;;;;;;;;17.40;66.50;;;;;;5039893;28;1206;-73
2024/02/28 04:07:21;;;;;;;;;;;17.40;66.50;;;;;;5040020;28;940;-73
2024/02/28 04:09:46;;;;;;;;;;;17.40;66.50;;;;;;5038571;28;1965;-72
2024/02/28 04:12:12;;;;;;;;;;;17.40;66.60;;;;;;5041976;28;1276;-73
2024/02/28 04:14:38;;;;;;;;;;;17.40;66.60;;;;;;5040004;28;1049;-72
2024/02/28 04:17:03;;;;;;;;;;;17.40;66.60;;;;;;5040955;28;963;-72
2024/02/28 04:19:32;;;;;;;;;;;17.40;66.50;;;;;;5039936;28;847;-72
2024/02/28 04:21:57;;;;;;;;;;;17.40;66.60;;;;;;5040641;28;1348;-72
2024/02/28 04:24:23;;;;;;;;;;;17.40;66.60;;;;;;5040267;28;1369;-72
2024/02/28 04:26:48;;;;;;;;;;;17.40;66.50;;;;;;5043516;28;1528;-72
2024/02/28 04:29:14;;;;;;;;;;;17.40;66.60;;;;;;5042400;28;1898;-71
2024/02/28 04:31:40;;;;;;;;;;;17.40;66.60;;;;;;5041102;28;1256;-72
2024/02/28 04:34:05;;;;;;;;;;;17.40;66.60;;;;;;5041079;28;959;-70
2024/02/28 04:36:31;;;;;;;;;;;17.40;66.60;;;;;;5038472;28;1467;-72
2024/02/28 04:38:56;;;;;;;;;;;17.40;66.60;;;;;;5039053;28;1313;-72
2024/02/28 04:41:22;;;;;;;;;;;17.40;66.60;;;;;;5037847;28;1471;-72
2024/02/28 04:43:47;;;;;;;;;;;17.40;66.60;;;;;;5039701;28;1419;-72
2024/02/28 04:46:12;;;;;;;;;;;17.40;66.60;;;;;;5038503;28;1528;-73
2024/02/28 04:48:38;;;;;;;;;;;17.40;66.60;;;;;;5038481;28;1902;-73
2024/02/28 04:51:03;;;;;;;;;;;17.40;66.60;;;;;;5037973;28;1276;-74
2024/02/28 04:53:29;;;;;;;;;;;17.40;66.60;;;;;;5040764;28;1446;-74
2024/02/28 04:55:54;;;;;;;;;;;17.40;66.60;;;;;;5023921;28;1566;-74
2024/02/28 04:58:20;;;;;;;;;;;17.40;66.60;;;;;;5042260;28;1352;-74
2024/02/28 05:00:45;;;;;;;;;;;17.40;66.60;;;;;;5042651;28;1632;-73
2024/02/28 05:03:11;;;;;;;;;;;17.40;66.70;;;;;;5038975;28;1554;-72
2024/02/28 05:05:36;;;;;;;;;;;17.40;66.60;;;;;;5037844;28;1273;-75
2024/02/28 05:08:02;;;;;;;;;;;17.40;66.70;;;;;;5037737;28;1633;-73
2024/02/28 05:10:27;;;;;;;;;;;17.40;66.70;;;;;;5040938;28;1996;-76
2024/02/28 05:12:53;;;;;;;;;;;17.40;66.60;;;;;;5040065;28;1346;-75
2024/02/28 05:15:19;;;;;;;;;;;17.40;66.60;;;;;;5037264;28;1346;-69
2024/02/28 05:17:45;;;;;;;;;;;17.40;66.50;;;;;;5038449;28;1039;-69
2024/02/28 05:20:10;;;;;;;;;;;17.40;66.40;;;;;;5041410;28;1248;-71
2024/02/28 05:22:36;;;;;;;;;;;17.40;66.30;;;;;;5043042;28;1339;-69
2024/02/28 05:25:01;;;;;;;;;;;17.50;66.30;;;;;;5035957;28;1232;-69
2024/02/28 05:27:27;;;;;;;;;;;17.50;66.20;;;;;;5039985;28;1202;-73
2024/02/28 05:29:53;;;;;;;;;;;17.50;66.10;;;;;;5043499;28;1965;-73
2024/02/28 05:32:18;;;;;;;;;;;17.60;66.00;;;;;;5043422;28;1335;-72
2024/02/28 05:34:44;;;;;;;;;;;17.60;66.00;;;;;;5041800;28;1460;-69
2024/02/28 05:37:09;;;;;;;;;;;17.60;65.80;;;;;;5035218;28;1466;-69
2024/02/28 05:39:34;;;;;;;;;;;17.60;65.70;;;;;;5036046;28;1540;-68
2024/02/28 05:42:00;;;;;;;;;;;17.60;65.70;;;;;;5038939;28;1612;-69
2024/02/28 05:44:26;;;;;;;;;;;17.60;65.60;;;;;;5040542;28;1458;-68
2024/02/28 05:46:51;;;;;;;;;;;17.70;65.50;;;;;;5043332;28;1826;-69
2024/02/28 05:49:16;;;;;;;;;;;17.70;65.50;;;;;;5040298;28;1903;-70
2024/02/28 05:51:42;;;;;;;;;;;17.70;65.40;;;;;;5045038;28;1280;-69
2024/02/28 05:54:07;;;;;;;;;;;17.70;65.30;;;;;;5043476;28;1462;-70
2024/02/28 05:56:33;;;;;;;;;;;17.70;65.20;;;;;;5050383;28;1343;-70
2024/02/28 05:58:58;;;;;;;;;;;17.70;65.20;;;;;;5042927;28;1151;-71
2024/02/28 06:01:24;;;;;;;;;;;17.80;65.20;;;;;;5041844;28;1349;-70
2024/02/28 06:03:50;;;;;;;;;;;17.80;65.20;;;;;;5041100;28;1451;-70
2024/02/28 06:06:16;;;;;;;;;;;17.80;65.10;;;;;;5042208;28;1595;-69
2024/02/28 06:08:42;;;;;;;;;;;17.80;65.10;;;;;;5038958;28;1882;-69
2024/02/28 06:11:08;;;;;;;;;;;17.80;65.00;;;;;;5042741;28;1413;-70
2024/02/28 06:13:33;;;;;;;;;;;17.80;65.00;;;;;;5042174;28;1545;-69
2024/02/28 06:15:59;;;;;;;;;;;17.80;65.00;;;;;;5040650;28;1541;-68
2024/02/28 06:18:27;;;;;;;;;;;17.80;64.90;;;;;;5042039;28;1447;-70
2024/02/28 06:20:53;;;;;;;;;;;17.80;65.00;;;;;;5039137;28;1570;-71
2024/02/28 06:23:19;;;;;;;;;;;17.80;64.90;;;;;;5042794;28;1423;-71
2024/02/28 06:25:44;;;;;;;;;;;17.80;64.90;;;;;;5044803;28;1241;-72
2024/02/28 06:28:10;;;;;;;;;;;17.80;64.90;;;;;;5041006;28;1572;-72
2024/02/28 06:30:35;;;;;;;;;;;17.80;64.80;;;;;;5040035;28;1961;-73
2024/02/28 06:33:01;;;;;;;;;;;17.80;64.80;;;;;;5042762;28;980;-72
2024/02/28 06:35:26;;;;;;;;;;;17.80;64.80;;;;;;5044018;28;966;-72
2024/02/28 06:37:52;;;;;;;;;;;17.90;64.90;;;;;;5040847;28;1377;-73
2024/02/28 06:40:18;;;;;;;;;;;17.80;64.80;;;;;;5042437;28;1524;-73
2024/02/28 06:42:43;;;;;;;;;;;17.80;64.80;;;;;;5042564;28;1637;-74
2024/02/28 06:45:09;;;;;;;;;;;17.80;64.80;;;;;;5040366;28;966;-75
2024/02/28 06:47:36;;;;;;;;;;;17.80;64.80;;;;;;5039227;28;1265;-75
2024/02/28 06:50:02;;;;;;;;;;;17.80;64.80;;;;;;5043744;28;1890;-74
2024/02/28 06:52:27;;;;;;;;;;;17.80;64.80;;;;;;5038727;28;1306;-71
2024/02/28 06:54:53;;;;;;;;;;;17.80;64.80;;;;;;5044240;28;1081;-73
2024/02/28 06:57:18;;;;;;;;;;;17.80;64.80;;;;;;5053635;28;1321;-73
2024/02/28 06:59:44;;;;;;;;;;;17.80;64.80;;;;;;5053289;28;1215;-71
2024/02/28 07:02:09;;;;;;;;;;;17.80;64.90;;;;;;5039403;28;1281;-71
2024/02/28 07:04:35;;;;;;;;;;;17.80;64.90;;;;;;5044708;28;1594;-75
2024/02/28 07:07:00;;;;;;;;;;;17.80;64.90;;;;;;5048606;28;1144;-73
2024/02/28 07:09:29;;;;;;;;;;;17.80;65.00;;;;;;5038964;28;1914;-71
2024/02/28 07:11:55;;;;;;;;;;;17.80;65.00;;;;;;5040219;28;1699;-72
2024/02/28 07:14:20;;;;;;;;;;;17.80;65.00;;;;;;5041113;28;1576;-72
2024/02/28 07:16:46;;;;;;;;;;;17.80;65.00;;;;;;5040890;28;1631;-72
2024/02/28 07:19:11;;;;;;;;;;;17.80;65.00;;;;;;5036906;28;1551;-72
2024/02/28 07:21:37;;;;;;;;;;;17.80;65.10;;;;;;5041655;28;1362;-74
2024/02/28 07:24:04;;;;;;;;;;;17.80;65.10;;;;;;5039266;28;1341;-71
2024/02/28 07:26:30;;;;;;;;;;;17.70;65.00;;;;;;5039206;28;1526;-72
2024/02/28 07:28:55;;;;;;;;;;;17.70;65.10;;;;;;5047843;28;2275;-71
2024/02/28 07:31:22;;;;;;;;;;;17.70;65.10;;;;;;5042553;28;1406;-72
2024/02/28 07:33:47;;;;;;;;;;;17.80;65.10;;;;;;5036180;28;1302;-70
2024/02/28 07:36:13;;;;;;;;;;;17.70;65.10;;;;;;5069707;28;1590;-72
2024/02/28 07:38:38;;;;;;;;;;;17.70;65.20;;;;;;5028110;28;1397;-72
2024/02/28 07:41:04;;;;;;;;;;;17.70;65.20;;;;;;5040317;28;1483;-72
2024/02/28 07:43:32;;;;;;;;;;;17.70;65.20;;;;;;5040144;28;1484;-71
2024/02/28 07:45:58;;;;;;;;;;;17.70;65.20;;;;;;5040806;28;1540;-71
2024/02/28 07:48:23;;;;;;;;;;;17.70;65.20;;;;;;5040121;28;1910;-71
2024/02/28 07:50:49;;;;;;;;;;;17.70;65.20;;;;;;5023025;28;1347;-71
2024/02/28 07:53:15;;;;;;;;;;;17.70;65.30;;;;;;5038367;28;1443;-70
2024/02/28 07:55:40;;;;;;;;;;;17.70;65.30;;;;;;5039966;28;2265;-72
2024/02/28 07:58:06;;;;;;;;;;;17.70;65.30;;;;;;5040250;28;1488;-71
2024/02/28 08:00:33;;;;;;;;;;;17.70;65.30;;;;;;5042203;28;1643;-73
2024/02/28 08:02:59;;;;;;;;;;;17.70;65.30;;;;;;5042547;28;1954;-70
2024/02/28 08:05:24;;;;;;;;;;;17.70;65.40;;;;;;5037046;28;1325;-73
2024/02/28 08:07:49;;;;;;;;;;;17.70;65.40;;;;;;5069139;28;1271;-73
2024/02/28 08:10:15;;;;;;;;;;;17.70;65.40;;;;;;5036771;28;1891;-71
2024/02/28 08:12:40;;;;;;;;;;;17.70;65.40;;;;;;5038779;28;1413;-74
2024/02/28 08:15:06;;;;;;;;;;;17.70;65.40;;;;;;5039960;28;1468;-73
2024/02/28 08:17:31;;;;;;;;;;;17.60;65.40;;;;;;5038351;28;1472;-73
2024/02/28 08:19:57;;;;;;;;;;;17.70;65.40;;;;;;5040441;28;1269;-74
2024/02/28 08:22:24;;;;;;;;;;;17.70;65.50;;;;;;5039465;28;1406;-73
2024/02/28 08:24:53;;;;;;;;;;;17.70;65.50;;;;;;5038967;28;1306;-74
2024/02/28 08:27:19;;;;;;;;;;;17.70;65.50;;;;;;5041156;28;1256;-72
2024/02/28 08:29:45;;;;;;;;;;;17.70;65.50;;;;;;5043887;28;1902;-74
2024/02/28 08:32:11;;;;;;;;;;;17.70;65.50;;;;;;5041250;28;1379;-73
2024/02/28 08:34:37;;;;;;;;;;;17.70;65.50;;;;;;5036802;28;1361;-74
2024/02/28 08:37:02;;;;;;;;;;;17.60;65.50;;;;;;5037160;28;1160;-75
2024/02/28 08:39:28;;;;;;;;;;;17.60;65.50;;;;;;5039110;28;1324;-72
2024/02/28 08:41:53;;;;;;;;;;;17.60;65.50;;;;;;5038463;28;1450;-74
2024/02/28 08:44:20;;;;;;;;;;;17.60;65.50;;;;;;5037194;28;1284;-73
2024/02/28 08:46:49;;;;;;;;;;;17.70;65.60;;;;;;5036438;28;1347;-73
2024/02/28 08:49:14;;;;;;;;;;;17.70;65.50;;;;;;5036970;28;1960;-74
2024/02/28 08:51:40;;;;;;;;;;;17.70;65.50;;;;;;5036592;28;1437;-75
2024/02/28 08:54:05;;;;;;;;;;;17.70;65.40;;;;;;5039108;28;1383;-75
2024/02/28 08:56:31;;;;;;;;;;;17.70;65.40;;;;;;5035671;28;1554;-75
2024/02/28 08:58:56;;;;;;;;;;;17.70;65.30;;;;;;5037406;28;2117;-75
2024/02/28 09:01:22;;;;;;;;;;;17.70;65.30;;;;;;5035808;28;1447;-75
2024/02/28 09:03:47;;;;;;;;;;;17.70;65.20;;;;;;5039242;28;1380;-73
2024/02/28 09:06:13;;;;;;;;;;;17.70;65.20;;;;;;5042312;28;1259;-75
2024/02/28 09:08:38;;;;;;;;;;;17.80;65.20;;;;;;5040487;28;1913;-73
2024/02/28 09:11:05;;;;;;;;;;;17.80;65.10;;;;;;5038634;28;1416;-72
2024/02/28 09:13:30;;;;;;;;;;;17.80;65.10;;;;;;5040590;28;1354;-75
2024/02/28 09:15:56;;;;;;;;;;;17.80;65.10;;;;;;5036996;28;1600;-74
2024/02/28 09:18:21;;;;;;;;;;;17.80;65.10;;;;;;5039232;28;1096;-74
2024/02/28 09:20:47;;;;;;;;;;;17.80;65.10;;;;;;5061046;28;1404;-75
2024/02/28 09:23:12;;;;;;;;;;;17.80;65.10;;;;;;5040132;28;1234;-74
2024/02/28 09:25:38;;;;;;;;;;;17.80;65.10;;;;;;5042327;28;1334;-74
2024/02/28 09:28:04;;;;;;;;;;;17.80;65.10;;;;;;5039152;28;1229;-74
2024/02/28 09:30:29;;;;;;;;;;;17.80;65.10;;;;;;5046321;28;1906;-74
2024/02/28 09:32:54;;;;;;;;;;;17.80;65.10;;;;;;5041707;28;1203;-75
2024/02/28 09:35:20;;;;;;;;;;;17.80;65.10;;;;;;5042556;28;1225;-75
2024/02/28 09:37:45;;;;;;;;;;;17.80;65.10;;;;;;5042442;28;1174;-75
2024/02/28 09:40:11;;;;;;;;;;;17.80;65.00;;;;;;5041605;28;1043;-75
2024/02/28 09:42:37;;;;;;;;;;;17.80;65.00;;;;;;5040823;28;1483;-74
2024/02/28 09:45:02;;;;;;;;;;;17.80;65.00;;;;;;5041543;28;1055;-73
2024/02/28 09:47:28;;;;;;;;;;;17.80;65.00;;;;;;5049272;28;1267;-72
2024/02/28 09:49:53;;;;;;;;;;;17.80;64.90;;;;;;5041519;28;1910;-72
2024/02/28 09:52:19;;;;;;;;;;;17.80;64.90;;;;;;5037880;28;1285;-73
2024/02/28 09:54:45;;;;;;;;;;;17.80;64.90;;;;;;5038877;28;1512;-71
2024/02/28 09:57:11;;;;;;;;;;;17.80;64.90;;;;;;5040581;28;2134;-72
2024/02/28 09:59:36;;;;;;;;;;;17.80;64.80;;;;;;5072772;28;2239;-72
2024/02/28 10:02:03;;;;;;;;;;;17.80;64.80;;;;;;5038665;28;2085;-74
2024/02/28 10:04:28;;;;;;;;;;;17.80;64.80;;;;;;5047254;28;1938;-73
2024/02/28 10:06:54;;;;;;;;;;;17.80;64.80;;;;;;5041350;28;1370;-73
2024/02/28 10:09:19;;;;;;;;;;;17.90;64.80;;;;;;5042973;28;1910;-73
2024/02/28 10:11:45;;;;;;;;;;;17.80;64.70;;;;;;5042136;28;1693;-73
2024/02/28 10:14:11;;;;;;;;;;;17.90;64.80;;;;;;5044152;28;1342;-73
2024/02/28 10:16:36;;;;;;;;;;;17.80;64.70;;;;;;5040078;28;1540;-74
2024/02/28 10:19:02;;;;;;;;;;;17.80;64.70;;;;;;5049004;28;1273;-73
2024/02/28 10:21:32;;;;;;;;;;;17.80;64.60;;;;;;5037352;28;1519;-73
2024/02/28 10:23:58;;;;;;;;;;;17.90;64.70;;;;;;5040506;28;1614;-73
2024/02/28 10:26:23;;;;;;;;;;;17.90;64.70;;;;;;5044607;28;1673;-73
2024/02/28 10:28:49;;;;;;;;;;;17.90;64.70;;;;;;5042024;28;1898;-72
2024/02/28 10:31:14;;;;;;;;;;;17.90;64.70;;;;;;5041483;28;1497;-73
2024/02/28 10:33:41;;;;;;;;;;;17.90;64.70;;;;;;5043848;28;1364;-73
2024/02/28 10:36:06;;;;;;;;;;;17.90;64.70;;;;;;5040187;28;1364;-73
2024/02/28 10:38:38;;;;;;;;;;;17.90;64.70;;;;;;5040767;28;1521;-74
2024/02/28 10:41:03;;;;;;;;;;;17.90;64.70;;;;;;5038180;28;1921;-74
2024/02/28 10:43:29;;;;;;;;;;;17.90;64.70;;;;;;5038691;28;2108;-74
2024/02/28 10:45:58;;;;;;;;;;;17.90;64.70;;;;;;5040581;28;1798;-72
2024/02/28 10:48:24;;;;;;;;;;;17.90;64.70;;;;;;5038646;28;1338;-74
2024/02/28 10:50:50;;;;;;;;;;;17.90;64.70;;;;;;5049042;28;1890;-74
2024/02/28 10:53:15;;;;;;;;;;;17.90;64.60;;;;;;5038067;28;1550;-75
2024/02/28 10:55:41;;;;;;;;;;;17.90;64.60;;;;;;5039331;28;1446;-74
2024/02/28 10:58:07;;;;;;;;;;;17.90;64.50;;;;;;5040717;28;1003;-73
2024/02/28 11:00:32;;;;;;;;;;;17.90;64.50;;;;;;5043063;28;1406;-72
2024/02/28 11:02:58;;;;;;;;;;;17.90;64.50;;;;;;5031578;28;1743;-74
2024/02/28 11:05:23;;;;;;;;;;;17.90;64.70;;;;;;5052954;28;1468;-74
2024/02/28 11:07:51;;;;;;;;;;;18.00;64.70;;;;;;5041234;28;1643;-74
2024/02/28 11:10:16;;;;;;;;;;;18.00;64.60;;;;;;5038182;28;1967;-75
2024/02/28 11:12:42;;;;;;;;;;;18.00;64.50;;;;;;5039004;28;1419;-75
2024/02/28 11:15:15;;;;;;;;;;;18.00;64.40;;;;;;5036573;28;2264;-73
2024/02/28 11:17:40;;;;;;;;;;;18.00;64.30;;;;;;5037160;28;1595;-73
2024/02/28 11:20:12;;;;;;;;;;;18.00;64.30;;;;;;5034513;28;1503;-73
2024/02/28 11:22:39;;;;;;;;;;;18.00;64.30;;;;;;5037541;28;1347;-74
2024/02/28 11:25:05;;;;;;;;;;;18.00;64.20;;;;;;5047763;28;1289;-74
2024/02/28 11:27:31;;;;;;;;;;;18.00;64.20;;;;;;5042741;28;1626;-74
2024/02/28 11:29:56;;;;;;;;;;;18.00;64.20;;;;;;5041164;28;1961;-73
2024/02/28 11:32:24;;;;;;;;;;;18.00;64.10;;;;;;5037518;28;1312;-75
2024/02/28 11:34:51;;;;;;;;;;;18.00;64.10;;;;;;5038217;28;1413;-74
2024/02/28 11:37:18;;;;;;;;;;;18.00;64.10;;;;;;5048524;28;1280;-75
2024/02/28 11:39:46;;;;;;;;;;;18.00;64.00;;;;;;5038106;28;1479;-74
2024/02/28 11:42:16;;;;;;;;;;;18.10;64.10;;;;;;5041307;28;1295;-74
2024/02/28 11:44:42;;;;;;;;;;;18.10;64.10;;;;;;5038004;28;1564;-75
2024/02/28 11:47:10;;;;;;;;;;;18.10;64.00;;;;;;5037640;28;1243;-74
2024/02/28 11:49:38;;;;;;;;;;;18.10;64.00;;;;;;5040697;28;1914;-74
2024/02/28 11:52:04;;;;;;;;;;;18.10;64.00;;;;;;5039318;28;1476;-74
2024/02/28 11:54:30;;;;;;;;;;;18.10;64.00;;;;;;5040653;28;1621;-72
2024/02/28 11:56:55;;;;;;;;;;;18.10;64.00;;;;;;5039136;28;1242;-74
2024/02/28 11:59:20;;;;;;;;;;;18.10;64.00;;;;;;5039442;28;1628;-75
2024/02/28 12:01:49;;;;;;;;;;;18.10;64.00;;;;;;5039606;28;1383;-74
2024/02/28 12:04:16;;;;;;;;;;;18.10;64.00;;;;;;5038681;28;1588;-74
2024/02/28 12:06:41;;;;;;;;;;;18.10;64.00;;;;;;5039434;28;1617;-74
2024/02/28 12:09:08;;;;;;;;;;;18.10;64.10;;;;;;5038308;28;1965;-73
2024/02/28 12:11:34;;;;;;;;;;;18.10;64.00;;;;;;5027187;28;1489;-70
2024/02/28 12:14:01;;;;;;;;;;;18.10;64.00;;;;;;5040274;28;2420;-73
2024/02/28 12:16:27;;;;;;;;;;;18.10;64.00;;;;;;5047428;28;1475;-74
2024/02/28 12:18:53;;;;;;;;;;;18.10;64.00;;;;;;5024573;28;1702;-73
2024/02/28 12:21:18;;;;;;;;;;;18.10;64.00;;;;;;5041564;28;1396;-74
2024/02/28 12:23:44;;;;;;;;;;;18.10;64.00;;;;;;5041565;28;1357;-73
2024/02/28 12:26:09;;;;;;;;;;;18.10;64.00;;;;;;5041570;28;1547;-72
2024/02/28 12:28:35;;;;;;;;;;;18.10;64.80;;;;;;5040686;28;1931;-70
2024/02/28 12:31:00;;;;;;;;;;;18.10;64.00;;;;;;5040111;28;1288;-73
2024/02/28 12:33:26;;;;;;;;;;;18.10;64.10;;;;;;5042640;28;1464;-73
2024/02/28 12:35:52;;;;;;;;;;;18.00;64.00;;;;;;5039428;28;1443;-73
2024/02/28 12:38:17;;;;;;;;;;;18.10;64.10;;;;;;5041288;28;1371;-74
2024/02/28 12:40:43;;;;;;;;;;;18.00;64.00;;;;;;5041877;28;1584;-73
2024/02/28 12:43:08;;;;;;;;;;;18.00;64.10;;;;;;5042157;28;1464;-73
2024/02/28 12:45:33;;;;;;;;;;;18.00;64.10;;;;;;5041032;28;1435;-72
2024/02/28 12:48:01;;;;;;;;;;;18.00;64.10;;;;;;5038161;28;1284;-74
2024/02/28 12:50:26;;;;;;;;;;;18.00;64.10;;;;;;5046035;28;1897;-74
2024/02/28 12:52:53;;;;;;;;;;;18.00;64.10;;;;;;5037350;28;1248;-74
2024/02/28 12:55:20;;;;;;;;;;;18.00;64.20;;;;;;5038044;28;1896;-74
2024/02/28 12:57:45;;;;;;;;;;;18.00;64.20;;;;;;5037052;28;1329;-74
2024/02/28 13:00:11;;;;;;;;;;;18.00;64.20;;;;;;5040344;28;1216;-74
2024/02/28 13:02:37;;;;;;;;;;;18.00;64.20;;;;;;5034821;28;1456;-74
2024/02/28 13:05:02;;;;;;;;;;;18.00;64.20;;;;;;5046744;28;1296;-74
2024/02/28 13:07:29;;;;;;;;;;;18.00;64.20;;;;;;5036410;28;1585;-74
2024/02/28 13:09:55;;;;;;;;;;;18.00;64.30;;;;;;5038793;28;1906;-74
2024/02/28 13:12:21;;;;;;;;;;;18.00;64.30;;;;;;5035859;28;1577;-74
2024/02/28 13:14:47;;;;;;;;;;;18.00;64.30;;;;;;5039317;28;1498;-74
2024/02/28 13:17:13;;;;;;;;;;;18.00;64.30;;;;;;5037805;28;2215;-74
2024/02/28 13:19:39;;;;;;;;;;;18.00;64.30;;;;;;5041238;28;1940;-73
2024/02/28 13:22:04;;;;;;;;;;;17.90;64.30;;;;;;5040574;28;1501;-72
2024/02/28 13:24:30;;;;;;;;;;;17.90;64.30;;;;;;5069002;28;1198;-72
2024/02/28 13:26:55;;;;;;;;;;;17.90;64.30;;;;;;5042464;28;1173;-74
2024/02/28 13:29:21;;;;;;;;;;;18.00;64.40;;;;;;5040727;28;1965;-74
2024/02/28 13:31:46;;;;;;;;;;;18.00;64.40;;;;;;5040453;28;1435;-74
2024/02/28 13:34:12;;;;;;;;;;;18.00;64.40;;;;;;5040581;28;1572;-74
2024/02/28 13:36:42;;;;;;;;;;;17.90;64.40;;;;;;5043739;28;1260;-74
2024/02/28 13:39:08;;;;;;;;;;;17.90;64.40;;;;;;5056962;28;1335;-74
2024/02/28 13:41:33;;;;;;;;;;;18.00;64.50;;;;;;5036585;28;1436;-74
2024/02/28 13:43:59;;;;;;;;;;;17.90;64.40;;;;;;5074387;28;1269;-74
2024/02/28 13:46:24;;;;;;;;;;;17.90;64.40;;;;;;5038074;28;1231;-74
2024/02/28 13:48:49;;;;;;;;;;;17.90;64.40;;;;;;5039863;28;1894;-74
2024/02/28 13:51:15;;;;;;;;;;;17.90;64.50;;;;;;5038034;28;1333;-74
2024/02/28 13:53:41;;;;;;;;;;;17.90;64.50;;;;;;5036010;28;1356;-74
2024/02/28 13:56:06;;;;;;;;;;;17.90;64.50;;;;;;5037885;28;1372;-74
2024/02/28 13:58:32;;;;;;;;;;;17.90;64.50;;;;;;5040921;28;1473;-74
2024/02/28 14:00:57;;;;;;;;;;;17.90;64.50;;;;;;5037236;28;1250;-74
2024/02/28 14:03:25;;;;;;;;;;;17.90;64.60;;;;;;5038760;28;1323;-74
2024/02/28 14:05:50;;;;;;;;;;;17.90;64.60;;;;;;5051324;28;1291;-74
2024/02/28 14:08:17;;;;;;;;;;;17.90;64.60;;;;;;5047625;28;1349;-74
2024/02/28 14:10:42;;;;;;;;;;;17.90;64.60;;;;;;5042169;28;1985;-74
2024/02/28 14:13:07;;;;;;;;;;;17.90;64.70;;;;;;5046484;28;1264;-74
2024/02/28 14:15:36;;;;;;;;;;;17.90;64.60;;;;;;5041348;28;1489;-74
2024/02/28 14:18:01;;;;;;;;;;;17.90;64.70;;;;;;5047685;28;1195;-74
2024/02/28 14:20:27;;;;;;;;;;;17.90;64.70;;;;;;5045075;28;1513;-74
2024/02/28 14:22:53;;;;;;;;;;;17.90;64.60;;;;;;5044350;28;1284;-74